sensor_id;sensor_type;location;lat;lon;timestamp;P1;durP1;ratioP1;P2;durP2;ratioP2
56373;SDS011;58212;47.034;7.376;2023-08-12T00:01:33;4.93;;;3.10;;
56373;SDS011;58212;47.034;7.376;2023-08-12T00:04:00;3.67;;;3.38;;
56373;SDS011;58212;47.034;7.376;2023-08-12T00:06:27;4.20;;;3.10;;
56373;SDS011;58212;47.034;7.376;2023-08-12T00:08:54;3.10;;;2.80;;
56373;SDS011;58212;47.034;7.376;2023-08-12T00:11:22;3.55;;;2.92;;
56373;SDS011;58212;47.034;7.376;2023-08-12T00:13:49;4.28;;;3.50;;
56373;SDS011;58212;47.034;7.376;2023-08-12T00:16:15;4.43;;;3.38;;
56373;SDS011;58212;47.034;7.376;2023-08-12T00:18:42;4.47;;;3.03;;
56373;SDS011;58212;47.034;7.376;2023-08-12T00:21:09;3.35;;;2.83;;
56373;SDS011;58212;47.034;7.376;2023-08-12T00:23:37;4.30;;;3.30;;
56373;SDS011;58212;47.034;7.376;2023-08-12T00:26:05;4.75;;;3.25;;
56373;SDS011;58212;47.034;7.376;2023-08-12T00:28:33;3.30;;;3.08;;
56373;SDS011;58212;47.034;7.376;2023-08-12T00:31:00;4.55;;;3.33;;
56373;SDS011;58212;47.034;7.376;2023-08-12T00:33:27;3.70;;;3.40;;
56373;SDS011;58212;47.034;7.376;2023-08-12T00:35:57;4.18;;;2.92;;
56373;SDS011;58212;47.034;7.376;2023-08-12T00:38:24;3.78;;;3.20;;
56373;SDS011;58212;47.034;7.376;2023-08-12T00:40:51;4.07;;;3.50;;
56373;SDS011;58212;47.034;7.376;2023-08-12T00:43:18;3.80;;;3.17;;
56373;SDS011;58212;47.034;7.376;2023-08-12T00:45:47;6.35;;;3.42;;
56373;SDS011;58212;47.034;7.376;2023-08-12T00:48:13;3.47;;;3.17;;
56373;SDS011;58212;47.034;7.376;2023-08-12T00:50:42;3.60;;;3.30;;
56373;SDS011;58212;47.034;7.376;2023-08-12T00:53:12;4.00;;;3.70;;
56373;SDS011;58212;47.034;7.376;2023-08-12T00:55:40;4.60;;;3.55;;
56373;SDS011;58212;47.034;7.376;2023-08-12T00:58:07;4.38;;;3.70;;
56373;SDS011;58212;47.034;7.376;2023-08-12T01:00:35;4.20;;;3.80;;
56373;SDS011;58212;47.034;7.376;2023-08-12T01:03:03;5.68;;;3.17;;
56373;SDS011;58212;47.034;7.376;2023-08-12T01:05:31;3.78;;;3.45;;
56373;SDS011;58212;47.034;7.376;2023-08-12T01:07:59;3.70;;;3.28;;
56373;SDS011;58212;47.034;7.376;2023-08-12T01:10:27;3.90;;;3.58;;
56373;SDS011;58212;47.034;7.376;2023-08-12T01:13:03;5.30;;;3.72;;
56373;SDS011;58212;47.034;7.376;2023-08-12T01:15:39;5.45;;;3.50;;
56373;SDS011;58212;47.034;7.376;2023-08-12T01:18:10;4.43;;;3.35;;
56373;SDS011;58212;47.034;7.376;2023-08-12T01:20:38;4.75;;;3.78;;
56373;SDS011;58212;47.034;7.376;2023-08-12T01:23:11;4.60;;;3.85;;
56373;SDS011;58212;47.034;7.376;2023-08-12T01:25:39;4.28;;;3.30;;
56373;SDS011;58212;47.034;7.376;2023-08-12T01:28:06;5.03;;;3.67;;
56373;SDS011;58212;47.034;7.376;2023-08-12T01:30:34;4.10;;;3.55;;
56373;SDS011;58212;47.034;7.376;2023-08-12T01:33:07;4.35;;;3.10;;
56373;SDS011;58212;47.034;7.376;2023-08-12T01:35:38;5.25;;;3.50;;
56373;SDS011;58212;47.034;7.376;2023-08-12T01:38:08;4.68;;;3.75;;
56373;SDS011;58212;47.034;7.376;2023-08-12T01:40:37;4.40;;;3.65;;
56373;SDS011;58212;47.034;7.376;2023-08-12T01:43:05;4.70;;;3.28;;
56373;SDS011;58212;47.034;7.376;2023-08-12T01:45:33;3.97;;;3.58;;
56373;SDS011;58212;47.034;7.376;2023-08-12T01:48:00;4.28;;;3.30;;
56373;SDS011;58212;47.034;7.376;2023-08-12T01:50:28;3.95;;;3.60;;
56373;SDS011;58212;47.034;7.376;2023-08-12T01:52:54;5.85;;;3.47;;
56373;SDS011;58212;47.034;7.376;2023-08-12T01:55:21;4.07;;;3.67;;
56373;SDS011;58212;47.034;7.376;2023-08-12T01:57:50;3.90;;;3.60;;
56373;SDS011;58212;47.034;7.376;2023-08-12T02:00:16;4.03;;;3.72;;
56373;SDS011;58212;47.034;7.376;2023-08-12T02:02:44;5.07;;;3.45;;
56373;SDS011;58212;47.034;7.376;2023-08-12T02:05:12;3.38;;;3.08;;
56373;SDS011;58212;47.034;7.376;2023-08-12T02:07:39;3.88;;;3.55;;
56373;SDS011;58212;47.034;7.376;2023-08-12T02:10:08;3.92;;;3.50;;
56373;SDS011;58212;47.034;7.376;2023-08-12T02:12:35;3.33;;;3.00;;
56373;SDS011;58212;47.034;7.376;2023-08-12T02:15:04;3.72;;;3.00;;
56373;SDS011;58212;47.034;7.376;2023-08-12T02:17:32;5.00;;;3.45;;
56373;SDS011;58212;47.034;7.376;2023-08-12T02:19:58;4.18;;;3.55;;
56373;SDS011;58212;47.034;7.376;2023-08-12T02:22:25;3.97;;;3.58;;
56373;SDS011;58212;47.034;7.376;2023-08-12T02:24:52;4.75;;;3.50;;
56373;SDS011;58212;47.034;7.376;2023-08-12T02:27:20;4.25;;;3.47;;
56373;SDS011;58212;47.034;7.376;2023-08-12T02:29:46;5.13;;;3.20;;
56373;SDS011;58212;47.034;7.376;2023-08-12T02:32:14;3.65;;;3.30;;
56373;SDS011;58212;47.034;7.376;2023-08-12T02:34:41;4.40;;;3.30;;
56373;SDS011;58212;47.034;7.376;2023-08-12T02:37:09;3.50;;;3.20;;
56373;SDS011;58212;47.034;7.376;2023-08-12T02:39:39;3.72;;;3.42;;
56373;SDS011;58212;47.034;7.376;2023-08-12T02:42:06;3.85;;;3.28;;
56373;SDS011;58212;47.034;7.376;2023-08-12T02:44:33;5.78;;;3.78;;
56373;SDS011;58212;47.034;7.376;2023-08-12T02:46:59;4.07;;;3.25;;
56373;SDS011;58212;47.034;7.376;2023-08-12T02:49:28;6.00;;;3.58;;
56373;SDS011;58212;47.034;7.376;2023-08-12T02:51:54;4.30;;;3.30;;
56373;SDS011;58212;47.034;7.376;2023-08-12T02:54:21;4.15;;;3.33;;
56373;SDS011;58212;47.034;7.376;2023-08-12T02:56:49;3.63;;;3.22;;
56373;SDS011;58212;47.034;7.376;2023-08-12T02:59:16;4.93;;;3.50;;
56373;SDS011;58212;47.034;7.376;2023-08-12T03:01:42;3.83;;;3.50;;
56373;SDS011;58212;47.034;7.376;2023-08-12T03:04:09;3.22;;;2.92;;
56373;SDS011;58212;47.034;7.376;2023-08-12T03:06:37;5.22;;;2.95;;
56373;SDS011;58212;47.034;7.376;2023-08-12T03:09:05;3.70;;;3.20;;
56373;SDS011;58212;47.034;7.376;2023-08-12T03:11:32;5.50;;;3.63;;
56373;SDS011;58212;47.034;7.376;2023-08-12T03:14:00;3.55;;;3.25;;
56373;SDS011;58212;47.034;7.376;2023-08-12T03:16:27;4.18;;;3.70;;
56373;SDS011;58212;47.034;7.376;2023-08-12T03:18:54;4.78;;;3.50;;
56373;SDS011;58212;47.034;7.376;2023-08-12T03:21:21;4.82;;;3.58;;
56373;SDS011;58212;47.034;7.376;2023-08-12T03:23:51;3.40;;;3.10;;
56373;SDS011;58212;47.034;7.376;2023-08-12T03:26:17;4.10;;;3.63;;
56373;SDS011;58212;47.034;7.376;2023-08-12T03:28:45;3.63;;;3.33;;
56373;SDS011;58212;47.034;7.376;2023-08-12T03:31:16;4.82;;;3.25;;
56373;SDS011;58212;47.034;7.376;2023-08-12T03:33:43;5.88;;;3.67;;
56373;SDS011;58212;47.034;7.376;2023-08-12T03:36:10;5.40;;;3.75;;
56373;SDS011;58212;47.034;7.376;2023-08-12T03:38:38;4.20;;;3.80;;
56373;SDS011;58212;47.034;7.376;2023-08-12T03:41:10;4.85;;;3.75;;
56373;SDS011;58212;47.034;7.376;2023-08-12T03:43:37;4.00;;;3.60;;
56373;SDS011;58212;47.034;7.376;2023-08-12T03:46:04;3.85;;;3.22;;
56373;SDS011;58212;47.034;7.376;2023-08-12T03:48:31;4.53;;;3.58;;
56373;SDS011;58212;47.034;7.376;2023-08-12T03:50:59;5.50;;;3.42;;
56373;SDS011;58212;47.034;7.376;2023-08-12T03:53:25;5.28;;;3.63;;
56373;SDS011;58212;47.034;7.376;2023-08-12T03:55:53;5.25;;;3.60;;
56373;SDS011;58212;47.034;7.376;2023-08-12T03:58:21;4.88;;;3.45;;
56373;SDS011;58212;47.034;7.376;2023-08-12T04:00:48;3.75;;;3.40;;
56373;SDS011;58212;47.034;7.376;2023-08-12T04:03:15;3.33;;;2.95;;
56373;SDS011;58212;47.034;7.376;2023-08-12T04:05:48;8.40;;;3.53;;
56373;SDS011;58212;47.034;7.376;2023-08-12T04:08:17;5.30;;;3.30;;
56373;SDS011;58212;47.034;7.376;2023-08-12T04:10:45;5.65;;;3.80;;
56373;SDS011;58212;47.034;7.376;2023-08-12T04:13:12;5.68;;;3.38;;
56373;SDS011;58212;47.034;7.376;2023-08-12T04:15:41;4.70;;;3.55;;
56373;SDS011;58212;47.034;7.376;2023-08-12T04:18:08;3.95;;;3.65;;
56373;SDS011;58212;47.034;7.376;2023-08-12T04:20:35;6.20;;;3.30;;
56373;SDS011;58212;47.034;7.376;2023-08-12T04:23:04;4.40;;;3.33;;
56373;SDS011;58212;47.034;7.376;2023-08-12T04:25:31;3.42;;;3.13;;
56373;SDS011;58212;47.034;7.376;2023-08-12T04:27:58;3.92;;;3.28;;
56373;SDS011;58212;47.034;7.376;2023-08-12T04:30:25;6.20;;;3.22;;
56373;SDS011;58212;47.034;7.376;2023-08-12T04:32:53;4.22;;;3.20;;
56373;SDS011;58212;47.034;7.376;2023-08-12T04:35:22;3.33;;;3.03;;
56373;SDS011;58212;47.034;7.376;2023-08-12T04:37:49;3.45;;;3.15;;
56373;SDS011;58212;47.034;7.376;2023-08-12T04:40:16;5.05;;;3.17;;
56373;SDS011;58212;47.034;7.376;2023-08-12T04:42:45;3.88;;;2.85;;
56373;SDS011;58212;47.034;7.376;2023-08-12T04:45:12;3.72;;;3.10;;
56373;SDS011;58212;47.034;7.376;2023-08-12T04:47:39;3.30;;;3.00;;
56373;SDS011;58212;47.034;7.376;2023-08-12T04:50:07;5.22;;;3.45;;
56373;SDS011;58212;47.034;7.376;2023-08-12T04:52:34;3.38;;;3.08;;
56373;SDS011;58212;47.034;7.376;2023-08-12T04:55:02;3.47;;;3.15;;
56373;SDS011;58212;47.034;7.376;2023-08-12T04:57:30;3.67;;;3.38;;
56373;SDS011;58212;47.034;7.376;2023-08-12T04:59:57;3.92;;;3.53;;
56373;SDS011;58212;47.034;7.376;2023-08-12T05:02:24;4.63;;;3.30;;
56373;SDS011;58212;47.034;7.376;2023-08-12T05:04:51;3.60;;;3.30;;
56373;SDS011;58212;47.034;7.376;2023-08-12T05:07:21;3.40;;;3.05;;
56373;SDS011;58212;47.034;7.376;2023-08-12T05:09:48;5.38;;;3.40;;
56373;SDS011;58212;47.034;7.376;2023-08-12T05:12:15;5.20;;;3.45;;
56373;SDS011;58212;47.034;7.376;2023-08-12T05:14:42;3.92;;;3.03;;
56373;SDS011;58212;47.034;7.376;2023-08-12T05:17:09;3.53;;;3.22;;
56373;SDS011;58212;47.034;7.376;2023-08-12T05:19:37;4.57;;;3.60;;
56373;SDS011;58212;47.034;7.376;2023-08-12T05:22:03;3.85;;;3.45;;
56373;SDS011;58212;47.034;7.376;2023-08-12T05:24:31;4.00;;;3.25;;
56373;SDS011;58212;47.034;7.376;2023-08-12T05:26:58;4.57;;;3.17;;
56373;SDS011;58212;47.034;7.376;2023-08-12T05:29:25;3.70;;;3.35;;
56373;SDS011;58212;47.034;7.376;2023-08-12T05:31:52;3.55;;;3.22;;
56373;SDS011;58212;47.034;7.376;2023-08-12T05:34:19;6.40;;;3.35;;
56373;SDS011;58212;47.034;7.376;2023-08-12T05:36:46;3.40;;;3.10;;
56373;SDS011;58212;47.034;7.376;2023-08-12T05:39:12;3.53;;;3.20;;
56373;SDS011;58212;47.034;7.376;2023-08-12T05:41:41;7.28;;;3.58;;
56373;SDS011;58212;47.034;7.376;2023-08-12T05:44:08;4.20;;;3.30;;
56373;SDS011;58212;47.034;7.376;2023-08-12T05:46:35;5.40;;;3.33;;
56373;SDS011;58212;47.034;7.376;2023-08-12T05:49:02;5.03;;;3.13;;
56373;SDS011;58212;47.034;7.376;2023-08-12T05:51:29;3.13;;;2.85;;
56373;SDS011;58212;47.034;7.376;2023-08-12T05:53:56;3.00;;;2.80;;
56373;SDS011;58212;47.034;7.376;2023-08-12T05:56:22;3.92;;;3.20;;
56373;SDS011;58212;47.034;7.376;2023-08-12T05:58:50;3.63;;;3.00;;
56373;SDS011;58212;47.034;7.376;2023-08-12T06:01:17;7.07;;;3.28;;
56373;SDS011;58212;47.034;7.376;2023-08-12T06:03:44;5.53;;;2.88;;
56373;SDS011;58212;47.034;7.376;2023-08-12T06:06:11;3.65;;;3.20;;
56373;SDS011;58212;47.034;7.376;2023-08-12T06:08:37;3.53;;;3.22;;
56373;SDS011;58212;47.034;7.376;2023-08-12T06:11:04;3.60;;;3.30;;
56373;SDS011;58212;47.034;7.376;2023-08-12T06:13:31;3.63;;;3.25;;
56373;SDS011;58212;47.034;7.376;2023-08-12T06:15:59;3.92;;;3.50;;
56373;SDS011;58212;47.034;7.376;2023-08-12T06:18:28;4.00;;;3.60;;
56373;SDS011;58212;47.034;7.376;2023-08-12T06:20:55;5.85;;;3.30;;
56373;SDS011;58212;47.034;7.376;2023-08-12T06:23:21;4.25;;;3.20;;
56373;SDS011;58212;47.034;7.376;2023-08-12T06:25:48;4.72;;;3.30;;
56373;SDS011;58212;47.034;7.376;2023-08-12T06:28:14;3.28;;;2.97;;
56373;SDS011;58212;47.034;7.376;2023-08-12T06:30:44;3.42;;;2.97;;
56373;SDS011;58212;47.034;7.376;2023-08-12T06:33:13;3.15;;;2.88;;
56373;SDS011;58212;47.034;7.376;2023-08-12T06:35:41;4.40;;;3.28;;
56373;SDS011;58212;47.034;7.376;2023-08-12T06:38:08;4.15;;;3.85;;
56373;SDS011;58212;47.034;7.376;2023-08-12T06:40:37;4.80;;;3.97;;
56373;SDS011;58212;47.034;7.376;2023-08-12T06:43:04;9.20;;;5.10;;
56373;SDS011;58212;47.034;7.376;2023-08-12T06:45:32;4.65;;;4.25;;
56373;SDS011;58212;47.034;7.376;2023-08-12T06:47:59;4.15;;;3.17;;
56373;SDS011;58212;47.034;7.376;2023-08-12T06:50:28;3.72;;;3.40;;
56373;SDS011;58212;47.034;7.376;2023-08-12T06:52:55;4.38;;;3.78;;
56373;SDS011;58212;47.034;7.376;2023-08-12T06:55:22;5.50;;;3.28;;
56373;SDS011;58212;47.034;7.376;2023-08-12T06:57:49;4.70;;;3.85;;
56373;SDS011;58212;47.034;7.376;2023-08-12T07:00:16;4.20;;;3.88;;
56373;SDS011;58212;47.034;7.376;2023-08-12T07:02:42;4.22;;;3.83;;
56373;SDS011;58212;47.034;7.376;2023-08-12T07:05:09;3.97;;;3.67;;
56373;SDS011;58212;47.034;7.376;2023-08-12T07:07:37;4.13;;;3.75;;
56373;SDS011;58212;47.034;7.376;2023-08-12T07:10:05;5.47;;;3.75;;
56373;SDS011;58212;47.034;7.376;2023-08-12T07:12:32;11.27;;;10.18;;
56373;SDS011;58212;47.034;7.376;2023-08-12T07:14:58;5.00;;;4.50;;
56373;SDS011;58212;47.034;7.376;2023-08-12T07:17:26;5.63;;;3.72;;
56373;SDS011;58212;47.034;7.376;2023-08-12T07:19:52;3.78;;;3.30;;
56373;SDS011;58212;47.034;7.376;2023-08-12T07:22:19;4.47;;;3.90;;
56373;SDS011;58212;47.034;7.376;2023-08-12T07:24:47;4.70;;;4.30;;
56373;SDS011;58212;47.034;7.376;2023-08-12T07:27:14;3.78;;;3.47;;
56373;SDS011;58212;47.034;7.376;2023-08-12T07:29:41;4.30;;;3.90;;
56373;SDS011;58212;47.034;7.376;2023-08-12T07:32:11;4.10;;;3.63;;
56373;SDS011;58212;47.034;7.376;2023-08-12T07:34:38;4.60;;;3.80;;
56373;SDS011;58212;47.034;7.376;2023-08-12T07:37:05;4.10;;;3.70;;
56373;SDS011;58212;47.034;7.376;2023-08-12T07:39:31;4.00;;;3.35;;
56373;SDS011;58212;47.034;7.376;2023-08-12T07:41:59;5.45;;;4.28;;
56373;SDS011;58212;47.034;7.376;2023-08-12T07:44:26;5.93;;;4.78;;
56373;SDS011;58212;47.034;7.376;2023-08-12T07:46:53;7.07;;;4.32;;
56373;SDS011;58212;47.034;7.376;2023-08-12T07:49:19;4.88;;;4.10;;
56373;SDS011;58212;47.034;7.376;2023-08-12T07:51:46;6.97;;;4.45;;
56373;SDS011;58212;47.034;7.376;2023-08-12T07:54:13;6.25;;;4.57;;
56373;SDS011;58212;47.034;7.376;2023-08-12T07:56:39;6.85;;;5.10;;
56373;SDS011;58212;47.034;7.376;2023-08-12T07:59:07;6.15;;;5.50;;
56373;SDS011;58212;47.034;7.376;2023-08-12T08:01:34;5.78;;;4.95;;
56373;SDS011;58212;47.034;7.376;2023-08-12T08:04:01;7.30;;;5.65;;
56373;SDS011;58212;47.034;7.376;2023-08-12T08:06:27;9.27;;;5.80;;
56373;SDS011;58212;47.034;7.376;2023-08-12T08:08:54;5.40;;;4.40;;
56373;SDS011;58212;47.034;7.376;2023-08-12T08:11:23;5.50;;;4.38;;
56373;SDS011;58212;47.034;7.376;2023-08-12T08:13:50;5.38;;;4.60;;
56373;SDS011;58212;47.034;7.376;2023-08-12T08:16:18;5.47;;;4.75;;
56373;SDS011;58212;47.034;7.376;2023-08-12T08:18:45;6.40;;;4.20;;
56373;SDS011;58212;47.034;7.376;2023-08-12T08:21:11;4.65;;;4.15;;
56373;SDS011;58212;47.034;7.376;2023-08-12T08:23:39;4.50;;;4.10;;
56373;SDS011;58212;47.034;7.376;2023-08-12T08:26:07;4.95;;;4.25;;
56373;SDS011;58212;47.034;7.376;2023-08-12T08:28:33;4.55;;;4.10;;
56373;SDS011;58212;47.034;7.376;2023-08-12T08:31:00;4.40;;;3.97;;
56373;SDS011;58212;47.034;7.376;2023-08-12T08:33:29;6.00;;;4.50;;
56373;SDS011;58212;47.034;7.376;2023-08-12T08:35:56;4.97;;;4.47;;
56373;SDS011;58212;47.034;7.376;2023-08-12T08:38:23;4.80;;;4.30;;
56373;SDS011;58212;47.034;7.376;2023-08-12T08:40:49;4.80;;;4.40;;
56373;SDS011;58212;47.034;7.376;2023-08-12T08:43:18;5.00;;;4.50;;
56373;SDS011;58212;47.034;7.376;2023-08-12T08:45:47;5.05;;;4.65;;
56373;SDS011;58212;47.034;7.376;2023-08-12T08:48:15;5.95;;;4.57;;
56373;SDS011;58212;47.034;7.376;2023-08-12T08:50:43;5.45;;;4.47;;
56373;SDS011;58212;47.034;7.376;2023-08-12T08:53:11;5.38;;;4.60;;
56373;SDS011;58212;47.034;7.376;2023-08-12T08:55:39;5.25;;;4.43;;
56373;SDS011;58212;47.034;7.376;2023-08-12T08:58:06;7.43;;;4.88;;
56373;SDS011;58212;47.034;7.376;2023-08-12T09:00:33;5.80;;;4.43;;
56373;SDS011;58212;47.034;7.376;2023-08-12T09:03:02;5.50;;;4.75;;
56373;SDS011;58212;47.034;7.376;2023-08-12T09:05:31;5.18;;;4.70;;
56373;SDS011;58212;47.034;7.376;2023-08-12T09:08:02;5.70;;;5.10;;
56373;SDS011;58212;47.034;7.376;2023-08-12T09:10:31;7.88;;;6.22;;
56373;SDS011;58212;47.034;7.376;2023-08-12T09:13:02;4.80;;;4.40;;
56373;SDS011;58212;47.034;7.376;2023-08-12T09:15:29;8.52;;;5.10;;
56373;SDS011;58212;47.034;7.376;2023-08-12T09:17:56;6.38;;;4.82;;
56373;SDS011;58212;47.034;7.376;2023-08-12T09:20:25;7.10;;;5.00;;
56373;SDS011;58212;47.034;7.376;2023-08-12T09:22:55;6.45;;;4.95;;
56373;SDS011;58212;47.034;7.376;2023-08-12T09:25:25;8.07;;;5.68;;
56373;SDS011;58212;47.034;7.376;2023-08-12T09:27:53;19.20;;;8.48;;
56373;SDS011;58212;47.034;7.376;2023-08-12T09:30:22;9.25;;;6.13;;
56373;SDS011;58212;47.034;7.376;2023-08-12T09:32:57;9.23;;;7.47;;
56373;SDS011;58212;47.034;7.376;2023-08-12T09:35:30;5.90;;;4.95;;
56373;SDS011;58212;47.034;7.376;2023-08-12T09:38:00;6.18;;;5.20;;
56373;SDS011;58212;47.034;7.376;2023-08-12T09:40:29;5.70;;;5.13;;
56373;SDS011;58212;47.034;7.376;2023-08-12T09:42:56;5.80;;;5.15;;
56373;SDS011;58212;47.034;7.376;2023-08-12T09:45:23;7.78;;;5.78;;
56373;SDS011;58212;47.034;7.376;2023-08-12T09:47:50;8.93;;;5.97;;
56373;SDS011;58212;47.034;7.376;2023-08-12T09:50:17;8.07;;;5.80;;
56373;SDS011;58212;47.034;7.376;2023-08-12T09:52:43;5.65;;;5.10;;
56373;SDS011;58212;47.034;7.376;2023-08-12T09:55:11;7.20;;;5.63;;
56373;SDS011;58212;47.034;7.376;2023-08-12T09:57:43;10.02;;;5.70;;
56373;SDS011;58212;47.034;7.376;2023-08-12T10:00:10;6.90;;;5.55;;
56373;SDS011;58212;47.034;7.376;2023-08-12T10:02:42;6.25;;;5.40;;
56373;SDS011;58212;47.034;7.376;2023-08-12T10:05:09;7.18;;;5.28;;
56373;SDS011;58212;47.034;7.376;2023-08-12T10:07:38;8.32;;;5.40;;
56373;SDS011;58212;47.034;7.376;2023-08-12T10:10:06;5.75;;;5.13;;
56373;SDS011;58212;47.034;7.376;2023-08-12T10:12:34;5.85;;;5.30;;
56373;SDS011;58212;47.034;7.376;2023-08-12T10:15:04;8.00;;;5.47;;
56373;SDS011;58212;47.034;7.376;2023-08-12T10:17:33;5.88;;;5.20;;
56373;SDS011;58212;47.034;7.376;2023-08-12T10:20:00;5.55;;;4.80;;
56373;SDS011;58212;47.034;7.376;2023-08-12T10:22:30;6.38;;;5.22;;
56373;SDS011;58212;47.034;7.376;2023-08-12T10:24:57;5.45;;;4.72;;
56373;SDS011;58212;47.034;7.376;2023-08-12T10:27:25;5.47;;;4.40;;
56373;SDS011;58212;47.034;7.376;2023-08-12T10:29:52;6.70;;;4.25;;
56373;SDS011;58212;47.034;7.376;2023-08-12T10:32:23;4.50;;;3.45;;
56373;SDS011;58212;47.034;7.376;2023-08-12T10:34:53;3.88;;;3.45;;
56373;SDS011;58212;47.034;7.376;2023-08-12T10:37:22;5.00;;;4.10;;
56373;SDS011;58212;47.034;7.376;2023-08-12T10:39:49;4.78;;;3.65;;
56373;SDS011;58212;47.034;7.376;2023-08-12T10:45:09;4.25;;;3.83;;
56373;SDS011;58212;47.034;7.376;2023-08-12T10:47:41;7.50;;;3.70;;
56373;SDS011;58212;47.034;7.376;2023-08-12T10:50:18;4.93;;;3.95;;
56373;SDS011;58212;47.034;7.376;2023-08-12T10:52:46;4.65;;;3.83;;
56373;SDS011;58212;47.034;7.376;2023-08-12T10:55:16;3.83;;;3.35;;
56373;SDS011;58212;47.034;7.376;2023-08-12T10:57:44;4.13;;;3.35;;
56373;SDS011;58212;47.034;7.376;2023-08-12T11:00:11;4.90;;;3.75;;
56373;SDS011;58212;47.034;7.376;2023-08-12T11:02:41;3.95;;;3.55;;
56373;SDS011;58212;47.034;7.376;2023-08-12T11:05:11;6.40;;;3.72;;
56373;SDS011;58212;47.034;7.376;2023-08-12T11:07:39;4.30;;;3.90;;
56373;SDS011;58212;47.034;7.376;2023-08-12T11:10:11;5.18;;;3.80;;
56373;SDS011;58212;47.034;7.376;2023-08-12T11:12:40;5.53;;;3.90;;
56373;SDS011;58212;47.034;7.376;2023-08-12T11:15:08;4.18;;;3.72;;
56373;SDS011;58212;47.034;7.376;2023-08-12T11:17:37;4.75;;;3.95;;
56373;SDS011;58212;47.034;7.376;2023-08-12T11:20:07;5.47;;;4.00;;
56373;SDS011;58212;47.034;7.376;2023-08-12T11:22:36;4.10;;;3.80;;
56373;SDS011;58212;47.034;7.376;2023-08-12T11:25:04;5.10;;;4.22;;
56373;SDS011;58212;47.034;7.376;2023-08-12T11:27:37;4.82;;;3.90;;
56373;SDS011;58212;47.034;7.376;2023-08-12T11:30:06;5.20;;;4.07;;
56373;SDS011;58212;47.034;7.376;2023-08-12T11:32:37;4.85;;;4.00;;
56373;SDS011;58212;47.034;7.376;2023-08-12T11:35:06;4.43;;;4.03;;
56373;SDS011;58212;47.034;7.376;2023-08-12T11:37:36;4.45;;;3.65;;
56373;SDS011;58212;47.034;7.376;2023-08-12T11:40:03;4.45;;;4.05;;
56373;SDS011;58212;47.034;7.376;2023-08-12T11:42:34;4.78;;;4.00;;
56373;SDS011;58212;47.034;7.376;2023-08-12T11:45:00;4.10;;;3.70;;
56373;SDS011;58212;47.034;7.376;2023-08-12T11:47:27;5.65;;;3.80;;
56373;SDS011;58212;47.034;7.376;2023-08-12T11:49:54;5.15;;;3.35;;
56373;SDS011;58212;47.034;7.376;2023-08-12T11:52:22;7.25;;;3.85;;
56373;SDS011;58212;47.034;7.376;2023-08-12T11:54:49;5.50;;;3.92;;
56373;SDS011;58212;47.034;7.376;2023-08-12T11:57:16;4.15;;;3.75;;
56373;SDS011;58212;47.034;7.376;2023-08-12T11:59:43;4.78;;;4.22;;
56373;SDS011;58212;47.034;7.376;2023-08-12T12:02:10;4.85;;;3.65;;
56373;SDS011;58212;47.034;7.376;2023-08-12T12:04:38;6.53;;;4.60;;
56373;SDS011;58212;47.034;7.376;2023-08-12T12:07:16;4.50;;;4.07;;
56373;SDS011;58212;47.034;7.376;2023-08-12T12:09:45;4.95;;;3.97;;
56373;SDS011;58212;47.034;7.376;2023-08-12T12:12:12;4.20;;;3.80;;
56373;SDS011;58212;47.034;7.376;2023-08-12T12:14:38;4.13;;;3.70;;
56373;SDS011;58212;47.034;7.376;2023-08-12T12:17:06;5.82;;;4.50;;
56373;SDS011;58212;47.034;7.376;2023-08-12T12:19:34;4.45;;;4.10;;
56373;SDS011;58212;47.034;7.376;2023-08-12T12:22:01;5.60;;;3.90;;
56373;SDS011;58212;47.034;7.376;2023-08-12T12:24:29;7.45;;;4.30;;
56373;SDS011;58212;47.034;7.376;2023-08-12T12:26:57;8.15;;;4.30;;
56373;SDS011;58212;47.034;7.376;2023-08-12T12:29:24;5.75;;;4.65;;
56373;SDS011;58212;47.034;7.376;2023-08-12T12:31:51;4.45;;;3.97;;
56373;SDS011;58212;47.034;7.376;2023-08-12T12:34:18;4.57;;;3.88;;
56373;SDS011;58212;47.034;7.376;2023-08-12T12:36:45;5.03;;;3.95;;
56373;SDS011;58212;47.034;7.376;2023-08-12T12:39:11;6.25;;;3.90;;
56373;SDS011;58212;47.034;7.376;2023-08-12T12:41:40;5.25;;;4.00;;
56373;SDS011;58212;47.034;7.376;2023-08-12T12:44:08;4.10;;;3.72;;
56373;SDS011;58212;47.034;7.376;2023-08-12T12:46:34;4.32;;;3.92;;
56373;SDS011;58212;47.034;7.376;2023-08-12T12:49:01;5.22;;;3.78;;
56373;SDS011;58212;47.034;7.376;2023-08-12T12:51:28;5.72;;;4.20;;
56373;SDS011;58212;47.034;7.376;2023-08-12T12:53:55;7.03;;;3.83;;
56373;SDS011;58212;47.034;7.376;2023-08-12T12:56:22;5.05;;;4.13;;
56373;SDS011;58212;47.034;7.376;2023-08-12T12:58:49;5.20;;;4.05;;
56373;SDS011;58212;47.034;7.376;2023-08-12T13:01:17;3.88;;;3.58;;
56373;SDS011;58212;47.034;7.376;2023-08-12T13:03:43;6.68;;;3.92;;
56373;SDS011;58212;47.034;7.376;2023-08-12T13:06:10;5.07;;;4.10;;
56373;SDS011;58212;47.034;7.376;2023-08-12T13:08:37;5.38;;;3.80;;
56373;SDS011;58212;47.034;7.376;2023-08-12T13:11:03;5.28;;;4.32;;
56373;SDS011;58212;47.034;7.376;2023-08-12T13:13:30;6.25;;;4.43;;
56373;SDS011;58212;47.034;7.376;2023-08-12T13:15:57;4.15;;;3.60;;
56373;SDS011;58212;47.034;7.376;2023-08-12T13:18:25;4.22;;;3.50;;
56373;SDS011;58212;47.034;7.376;2023-08-12T13:20:52;4.95;;;3.70;;
56373;SDS011;58212;47.034;7.376;2023-08-12T13:23:18;3.90;;;3.60;;
56373;SDS011;58212;47.034;7.376;2023-08-12T13:25:45;6.85;;;4.18;;
56373;SDS011;58212;47.034;7.376;2023-08-12T13:28:11;4.13;;;3.45;;
56373;SDS011;58212;47.034;7.376;2023-08-12T13:30:38;4.85;;;3.85;;
56373;SDS011;58212;47.034;7.376;2023-08-12T13:33:05;5.40;;;3.95;;
56373;SDS011;58212;47.034;7.376;2023-08-12T13:35:33;4.55;;;4.13;;
56373;SDS011;58212;47.034;7.376;2023-08-12T13:37:59;5.57;;;3.60;;
56373;SDS011;58212;47.034;7.376;2023-08-12T13:40:26;5.03;;;4.10;;
56373;SDS011;58212;47.034;7.376;2023-08-12T13:42:53;5.22;;;3.92;;
56373;SDS011;58212;47.034;7.376;2023-08-12T13:45:20;5.55;;;3.80;;
56373;SDS011;58212;47.034;7.376;2023-08-12T13:47:47;3.78;;;3.47;;
56373;SDS011;58212;47.034;7.376;2023-08-12T13:50:14;5.85;;;3.92;;
56373;SDS011;58212;47.034;7.376;2023-08-12T13:52:44;5.63;;;3.80;;
56373;SDS011;58212;47.034;7.376;2023-08-12T13:55:12;4.22;;;3.83;;
56373;SDS011;58212;47.034;7.376;2023-08-12T13:57:39;4.78;;;4.22;;
56373;SDS011;58212;47.034;7.376;2023-08-12T14:00:05;4.68;;;3.55;;
56373;SDS011;58212;47.034;7.376;2023-08-12T14:02:37;7.88;;;4.53;;
56373;SDS011;58212;47.034;7.376;2023-08-12T14:05:04;4.88;;;4.32;;
56373;SDS011;58212;47.034;7.376;2023-08-12T14:07:31;4.50;;;4.10;;
56373;SDS011;58212;47.034;7.376;2023-08-12T14:09:59;4.53;;;3.75;;
56373;SDS011;58212;47.034;7.376;2023-08-12T14:12:27;4.75;;;3.40;;
56373;SDS011;58212;47.034;7.376;2023-08-12T14:14:53;5.18;;;3.72;;
56373;SDS011;58212;47.034;7.376;2023-08-12T14:17:21;3.97;;;3.40;;
56373;SDS011;58212;47.034;7.376;2023-08-12T14:19:48;4.95;;;4.00;;
56373;SDS011;58212;47.034;7.376;2023-08-12T14:22:18;4.30;;;3.88;;
56373;SDS011;58212;47.034;7.376;2023-08-12T14:24:45;4.63;;;3.75;;
56373;SDS011;58212;47.034;7.376;2023-08-12T14:27:14;3.80;;;3.50;;
56373;SDS011;58212;47.034;7.376;2023-08-12T14:29:42;4.65;;;3.50;;
56373;SDS011;58212;47.034;7.376;2023-08-12T14:32:09;8.88;;;3.88;;
56373;SDS011;58212;47.034;7.376;2023-08-12T14:34:36;4.88;;;3.78;;
56373;SDS011;58212;47.034;7.376;2023-08-12T14:37:03;5.95;;;3.60;;
56373;SDS011;58212;47.034;7.376;2023-08-12T14:39:30;5.25;;;4.05;;
56373;SDS011;58212;47.034;7.376;2023-08-12T14:41:57;6.05;;;3.90;;
56373;SDS011;58212;47.034;7.376;2023-08-12T14:44:25;5.45;;;4.20;;
56373;SDS011;58212;47.034;7.376;2023-08-12T14:46:53;6.57;;;4.22;;
56373;SDS011;58212;47.034;7.376;2023-08-12T14:49:20;7.00;;;3.63;;
56373;SDS011;58212;47.034;7.376;2023-08-12T14:51:46;4.80;;;3.80;;
56373;SDS011;58212;47.034;7.376;2023-08-12T14:54:13;5.28;;;4.03;;